Arcola, Virginia
Current Conditions -  °F | °C
As of 12:52 PM on Monday 24 Nov 2014 (Local Time) from KIAD Reporting Station
Broken Clouds Broken Clouds  
Wind Chill: 19°   Ceiling: 3000
Heat Index: 19°   Visibility: 10mi
Dew Point: 12°   Wind: 16mph
Humidity: 63%   Direction: 200°SSW
Pressure: 29.61"   Gusts: 26mph
Location:  38.95°N, 77.53°W
Report Text: KIAD 241752Z 20014G23KT 10SM BKN030 19/12 A2961 RMK AO2 PK WND 20030/1728 SLP027 T01940122 10194 20156 58025
Loading
Personal Weather Stations






























Interactive Weather Map New forecast layout! Learn more

10-Day Weather Forecast

Advertisements
Track Severe Weather on mobile